sensor_id;sensor_type;location;lat;lon;timestamp;temperature;humidity
5134;DHT22;2585;48.696;10.066;2023-07-16T00:02:03;19.00;94.30
5134;DHT22;2585;48.696;10.066;2023-07-16T00:04:31;19.00;94.30
5134;DHT22;2585;48.696;10.066;2023-07-16T00:07:01;18.90;94.30
5134;DHT22;2585;48.696;10.066;2023-07-16T00:09:28;18.90;94.20
5134;DHT22;2585;48.696;10.066;2023-07-16T00:11:56;18.90;94.20
5134;DHT22;2585;48.696;10.066;2023-07-16T00:14:23;18.90;94.20
5134;DHT22;2585;48.696;10.066;2023-07-16T00:16:50;18.90;94.20
5134;DHT22;2585;48.696;10.066;2023-07-16T00:19:17;18.80;94.20
5134;DHT22;2585;48.696;10.066;2023-07-16T00:21:44;18.90;94.20
5134;DHT22;2585;48.696;10.066;2023-07-16T00:24:11;18.80;94.20
5134;DHT22;2585;48.696;10.066;2023-07-16T00:26:37;18.70;94.20
5134;DHT22;2585;48.696;10.066;2023-07-16T00:29:04;18.80;94.20
5134;DHT22;2585;48.696;10.066;2023-07-16T00:31:31;18.70;94.20
5134;DHT22;2585;48.696;10.066;2023-07-16T00:33:58;18.70;94.20
5134;DHT22;2585;48.696;10.066;2023-07-16T00:36:25;18.70;94.20
5134;DHT22;2585;48.696;10.066;2023-07-16T00:38:51;18.60;94.20
5134;DHT22;2585;48.696;10.066;2023-07-16T00:41:18;18.50;94.20
5134;DHT22;2585;48.696;10.066;2023-07-16T00:43:45;18.60;94.20
5134;DHT22;2585;48.696;10.066;2023-07-16T00:46:12;18.50;94.20
5134;DHT22;2585;48.696;10.066;2023-07-16T00:48:40;18.50;94.20
5134;DHT22;2585;48.696;10.066;2023-07-16T00:51:08;18.40;94.10
5134;DHT22;2585;48.696;10.066;2023-07-16T00:53:35;18.40;94.20
5134;DHT22;2585;48.696;10.066;2023-07-16T00:56:02;18.40;94.20
5134;DHT22;2585;48.696;10.066;2023-07-16T00:58:29;18.30;94.10
5134;DHT22;2585;48.696;10.066;2023-07-16T01:00:56;18.30;94.10
5134;DHT22;2585;48.696;10.066;2023-07-16T01:03:23;18.20;94.10
5134;DHT22;2585;48.696;10.066;2023-07-16T01:06:14;18.20;94.10
5134;DHT22;2585;48.696;10.066;2023-07-16T01:08:45;18.20;94.10
5134;DHT22;2585;48.696;10.066;2023-07-16T01:11:13;18.00;94.00
5134;DHT22;2585;48.696;10.066;2023-07-16T01:13:41;17.90;93.90
5134;DHT22;2585;48.696;10.066;2023-07-16T01:16:23;17.70;93.90
5134;DHT22;2585;48.696;10.066;2023-07-16T01:18:51;17.50;93.80
5134;DHT22;2585;48.696;10.066;2023-07-16T01:21:20;17.40;93.70
5134;DHT22;2585;48.696;10.066;2023-07-16T01:27:04;17.30;93.70
5134;DHT22;2585;48.696;10.066;2023-07-16T01:29:37;17.20;93.70
5134;DHT22;2585;48.696;10.066;2023-07-16T01:32:07;17.30;93.70
5134;DHT22;2585;48.696;10.066;2023-07-16T01:34:36;17.30;93.80
5134;DHT22;2585;48.696;10.066;2023-07-16T01:37:04;17.40;93.80
5134;DHT22;2585;48.696;10.066;2023-07-16T01:39:32;17.30;93.80
5134;DHT22;2585;48.696;10.066;2023-07-16T01:42:02;17.40;93.80
5134;DHT22;2585;48.696;10.066;2023-07-16T01:44:29;17.30;93.80
5134;DHT22;2585;48.696;10.066;2023-07-16T01:47:11;17.20;93.80
5134;DHT22;2585;48.696;10.066;2023-07-16T01:49:39;17.30;93.80
5134;DHT22;2585;48.696;10.066;2023-07-16T01:52:06;17.30;93.80
5134;DHT22;2585;48.696;10.066;2023-07-16T01:54:33;17.30;93.80
5134;DHT22;2585;48.696;10.066;2023-07-16T01:57:00;17.40;93.80
5134;DHT22;2585;48.696;10.066;2023-07-16T01:59:27;17.40;93.80
5134;DHT22;2585;48.696;10.066;2023-07-16T02:01:54;17.40;93.80
5134;DHT22;2585;48.696;10.066;2023-07-16T02:06:58;17.50;93.90
5134;DHT22;2585;48.696;10.066;2023-07-16T02:09:25;17.50;93.90
5134;DHT22;2585;48.696;10.066;2023-07-16T02:11:52;17.50;93.90
5134;DHT22;2585;48.696;10.066;2023-07-16T02:14:19;17.50;93.90
5134;DHT22;2585;48.696;10.066;2023-07-16T02:16:46;17.50;93.90
5134;DHT22;2585;48.696;10.066;2023-07-16T02:19:13;17.50;93.90
5134;DHT22;2585;48.696;10.066;2023-07-16T02:21:39;17.40;93.90
5134;DHT22;2585;48.696;10.066;2023-07-16T02:24:06;17.50;93.90
5134;DHT22;2585;48.696;10.066;2023-07-16T02:26:33;17.40;93.90
5134;DHT22;2585;48.696;10.066;2023-07-16T02:29:00;17.50;93.90
5134;DHT22;2585;48.696;10.066;2023-07-16T02:31:27;17.50;93.90
5134;DHT22;2585;48.696;10.066;2023-07-16T02:33:54;17.50;93.90
5134;DHT22;2585;48.696;10.066;2023-07-16T02:36:20;17.50;93.90
5134;DHT22;2585;48.696;10.066;2023-07-16T02:38:47;17.50;93.90
5134;DHT22;2585;48.696;10.066;2023-07-16T02:41:14;17.50;93.90
5134;DHT22;2585;48.696;10.066;2023-07-16T02:43:41;17.50;93.90
5134;DHT22;2585;48.696;10.066;2023-07-16T02:46:07;17.50;93.90
5134;DHT22;2585;48.696;10.066;2023-07-16T02:48:34;17.50;93.90
5134;DHT22;2585;48.696;10.066;2023-07-16T02:51:01;17.50;93.90
5134;DHT22;2585;48.696;10.066;2023-07-16T02:53:28;17.40;93.90
5134;DHT22;2585;48.696;10.066;2023-07-16T02:55:55;17.50;93.90
5134;DHT22;2585;48.696;10.066;2023-07-16T02:58:22;17.50;93.90
5134;DHT22;2585;48.696;10.066;2023-07-16T03:00:48;17.50;93.90
5134;DHT22;2585;48.696;10.066;2023-07-16T03:03:15;17.50;93.90
5134;DHT22;2585;48.696;10.066;2023-07-16T03:05:42;17.40;93.90
5134;DHT22;2585;48.696;10.066;2023-07-16T03:08:09;17.50;93.90
5134;DHT22;2585;48.696;10.066;2023-07-16T03:10:36;17.50;93.90
5134;DHT22;2585;48.696;10.066;2023-07-16T03:13:02;17.50;93.90
5134;DHT22;2585;48.696;10.066;2023-07-16T03:15:29;17.50;93.90
5134;DHT22;2585;48.696;10.066;2023-07-16T03:17:56;17.50;93.90
5134;DHT22;2585;48.696;10.066;2023-07-16T03:20:23;17.50;93.90
5134;DHT22;2585;48.696;10.066;2023-07-16T03:22:50;17.60;93.90
5134;DHT22;2585;48.696;10.066;2023-07-16T03:25:16;17.60;93.90
5134;DHT22;2585;48.696;10.066;2023-07-16T03:27:43;17.60;94.00
5134;DHT22;2585;48.696;10.066;2023-07-16T03:30:10;17.50;93.90
5134;DHT22;2585;48.696;10.066;2023-07-16T03:32:37;17.60;94.00
5134;DHT22;2585;48.696;10.066;2023-07-16T03:35:17;17.60;94.00
5134;DHT22;2585;48.696;10.066;2023-07-16T03:37:44;17.50;93.90
5134;DHT22;2585;48.696;10.066;2023-07-16T03:40:15;17.50;93.90
5134;DHT22;2585;48.696;10.066;2023-07-16T03:42:42;17.50;93.90
5134;DHT22;2585;48.696;10.066;2023-07-16T03:45:10;17.50;93.90
5134;DHT22;2585;48.696;10.066;2023-07-16T03:47:37;17.60;94.00
5134;DHT22;2585;48.696;10.066;2023-07-16T03:50:05;17.50;93.90
5134;DHT22;2585;48.696;10.066;2023-07-16T03:52:32;17.40;93.90
5134;DHT22;2585;48.696;10.066;2023-07-16T03:54:58;17.30;93.80
5134;DHT22;2585;48.696;10.066;2023-07-16T03:57:28;17.30;93.80
5134;DHT22;2585;48.696;10.066;2023-07-16T03:59:55;17.30;93.80
5134;DHT22;2585;48.696;10.066;2023-07-16T04:02:23;17.20;93.80
5134;DHT22;2585;48.696;10.066;2023-07-16T04:04:50;17.20;93.80
5134;DHT22;2585;48.696;10.066;2023-07-16T04:07:17;17.10;93.80
5134;DHT22;2585;48.696;10.066;2023-07-16T04:09:44;17.10;93.80
5134;DHT22;2585;48.696;10.066;2023-07-16T04:12:11;17.10;93.80
5134;DHT22;2585;48.696;10.066;2023-07-16T04:14:38;17.10;93.80
5134;DHT22;2585;48.696;10.066;2023-07-16T04:17:05;17.00;93.70
5134;DHT22;2585;48.696;10.066;2023-07-16T04:19:32;17.00;93.70
5134;DHT22;2585;48.696;10.066;2023-07-16T04:21:59;16.90;93.70
5134;DHT22;2585;48.696;10.066;2023-07-16T04:24:26;17.00;93.70
5134;DHT22;2585;48.696;10.066;2023-07-16T04:26:55;17.00;93.70
5134;DHT22;2585;48.696;10.066;2023-07-16T04:29:22;16.90;93.70
5134;DHT22;2585;48.696;10.066;2023-07-16T04:31:49;16.90;93.70
5134;DHT22;2585;48.696;10.066;2023-07-16T04:34:16;16.70;93.60
5134;DHT22;2585;48.696;10.066;2023-07-16T04:36:44;16.80;93.60
5134;DHT22;2585;48.696;10.066;2023-07-16T04:39:11;16.80;93.60
5134;DHT22;2585;48.696;10.066;2023-07-16T04:41:38;16.80;93.60
5134;DHT22;2585;48.696;10.066;2023-07-16T04:44:05;16.80;93.60
5134;DHT22;2585;48.696;10.066;2023-07-16T04:46:31;16.90;93.70
5134;DHT22;2585;48.696;10.066;2023-07-16T04:48:58;16.90;93.70
5134;DHT22;2585;48.696;10.066;2023-07-16T04:51:25;16.90;93.70
5134;DHT22;2585;48.696;10.066;2023-07-16T04:53:52;16.90;93.70
5134;DHT22;2585;48.696;10.066;2023-07-16T04:56:19;16.90;93.70
5134;DHT22;2585;48.696;10.066;2023-07-16T04:58:46;16.80;93.70
5134;DHT22;2585;48.696;10.066;2023-07-16T05:01:13;16.70;93.70
5134;DHT22;2585;48.696;10.066;2023-07-16T05:03:39;16.80;93.70
5134;DHT22;2585;48.696;10.066;2023-07-16T05:06:06;16.80;93.70
5134;DHT22;2585;48.696;10.066;2023-07-16T05:08:33;16.80;93.70
5134;DHT22;2585;48.696;10.066;2023-07-16T05:11:01;16.80;93.70
5134;DHT22;2585;48.696;10.066;2023-07-16T05:13:28;16.90;93.70
5134;DHT22;2585;48.696;10.066;2023-07-16T05:15:55;17.00;93.70
5134;DHT22;2585;48.696;10.066;2023-07-16T05:18:22;17.00;93.70
5134;DHT22;2585;48.696;10.066;2023-07-16T05:20:49;17.00;93.70
5134;DHT22;2585;48.696;10.066;2023-07-16T05:23:16;17.10;93.70
5134;DHT22;2585;48.696;10.066;2023-07-16T05:25:49;17.10;93.70
5134;DHT22;2585;48.696;10.066;2023-07-16T05:28:19;17.10;93.70
5134;DHT22;2585;48.696;10.066;2023-07-16T05:30:45;16.90;93.60
5134;DHT22;2585;48.696;10.066;2023-07-16T05:33:12;16.90;93.60
5134;DHT22;2585;48.696;10.066;2023-07-16T05:35:40;16.90;93.60
5134;DHT22;2585;48.696;10.066;2023-07-16T05:38:07;16.80;93.60
5134;DHT22;2585;48.696;10.066;2023-07-16T05:40:34;16.80;93.60
5134;DHT22;2585;48.696;10.066;2023-07-16T05:43:00;16.70;93.50
5134;DHT22;2585;48.696;10.066;2023-07-16T05:45:29;16.70;93.50
5134;DHT22;2585;48.696;10.066;2023-07-16T05:47:56;16.80;93.60
5134;DHT22;2585;48.696;10.066;2023-07-16T05:50:22;16.90;93.60
5134;DHT22;2585;48.696;10.066;2023-07-16T05:52:49;17.00;93.70
5134;DHT22;2585;48.696;10.066;2023-07-16T05:55:17;17.00;93.70
5134;DHT22;2585;48.696;10.066;2023-07-16T05:57:44;17.00;93.70
5134;DHT22;2585;48.696;10.066;2023-07-16T06:00:11;16.90;93.70
5134;DHT22;2585;48.696;10.066;2023-07-16T06:02:38;16.90;93.70
5134;DHT22;2585;48.696;10.066;2023-07-16T06:05:05;16.80;93.60
5134;DHT22;2585;48.696;10.066;2023-07-16T06:07:32;16.90;93.70
5134;DHT22;2585;48.696;10.066;2023-07-16T06:09:59;17.00;93.70
5134;DHT22;2585;48.696;10.066;2023-07-16T06:12:26;17.00;93.70
5134;DHT22;2585;48.696;10.066;2023-07-16T06:14:53;16.90;93.60
5134;DHT22;2585;48.696;10.066;2023-07-16T06:17:20;17.00;93.70
5134;DHT22;2585;48.696;10.066;2023-07-16T06:19:47;17.10;93.70
5134;DHT22;2585;48.696;10.066;2023-07-16T06:22:17;17.10;93.70
5134;DHT22;2585;48.696;10.066;2023-07-16T06:24:43;17.20;93.70
5134;DHT22;2585;48.696;10.066;2023-07-16T06:27:10;17.30;93.70
5134;DHT22;2585;48.696;10.066;2023-07-16T06:29:37;17.30;93.70
5134;DHT22;2585;48.696;10.066;2023-07-16T06:32:04;17.40;93.80
5134;DHT22;2585;48.696;10.066;2023-07-16T06:34:32;17.40;93.70
5134;DHT22;2585;48.696;10.066;2023-07-16T06:36:58;17.20;93.60
5134;DHT22;2585;48.696;10.066;2023-07-16T06:39:25;17.10;93.40
5134;DHT22;2585;48.696;10.066;2023-07-16T06:41:52;17.10;93.30
5134;DHT22;2585;48.696;10.066;2023-07-16T06:44:19;17.30;93.50
5134;DHT22;2585;48.696;10.066;2023-07-16T06:46:46;17.40;93.60
5134;DHT22;2585;48.696;10.066;2023-07-16T06:49:12;17.40;93.60
5134;DHT22;2585;48.696;10.066;2023-07-16T06:51:39;17.60;93.70
5134;DHT22;2585;48.696;10.066;2023-07-16T06:54:07;17.70;93.80
5134;DHT22;2585;48.696;10.066;2023-07-16T06:56:34;17.80;93.80
5134;DHT22;2585;48.696;10.066;2023-07-16T06:59:01;17.80;93.80
5134;DHT22;2585;48.696;10.066;2023-07-16T07:01:28;18.00;93.80
5134;DHT22;2585;48.696;10.066;2023-07-16T07:03:55;18.10;93.80
5134;DHT22;2585;48.696;10.066;2023-07-16T07:06:22;18.10;93.80
5134;DHT22;2585;48.696;10.066;2023-07-16T07:08:51;18.20;93.70
5134;DHT22;2585;48.696;10.066;2023-07-16T07:11:18;18.40;93.70
5134;DHT22;2585;48.696;10.066;2023-07-16T07:13:45;18.50;93.70
5134;DHT22;2585;48.696;10.066;2023-07-16T07:16:12;18.30;93.30
5134;DHT22;2585;48.696;10.066;2023-07-16T07:18:39;18.50;93.20
5134;DHT22;2585;48.696;10.066;2023-07-16T07:21:06;18.30;92.10
5134;DHT22;2585;48.696;10.066;2023-07-16T07:23:33;18.40;92.00
5134;DHT22;2585;48.696;10.066;2023-07-16T07:26:00;18.30;91.40
5134;DHT22;2585;48.696;10.066;2023-07-16T07:28:27;18.40;92.20
5134;DHT22;2585;48.696;10.066;2023-07-16T07:30:54;18.30;92.00
5134;DHT22;2585;48.696;10.066;2023-07-16T07:33:22;18.30;91.10
5134;DHT22;2585;48.696;10.066;2023-07-16T07:35:49;18.50;90.50
5134;DHT22;2585;48.696;10.066;2023-07-16T07:38:15;18.60;92.50
5134;DHT22;2585;48.696;10.066;2023-07-16T07:40:43;18.50;90.40
5134;DHT22;2585;48.696;10.066;2023-07-16T07:43:10;18.40;86.90
5134;DHT22;2585;48.696;10.066;2023-07-16T07:45:37;18.60;90.50
5134;DHT22;2585;48.696;10.066;2023-07-16T07:48:04;18.50;77.30
5134;DHT22;2585;48.696;10.066;2023-07-16T07:50:31;18.60;70.20
5134;DHT22;2585;48.696;10.066;2023-07-16T07:52:58;18.90;74.00
5134;DHT22;2585;48.696;10.066;2023-07-16T07:55:25;19.20;83.80
5134;DHT22;2585;48.696;10.066;2023-07-16T07:57:52;19.90;90.10
5134;DHT22;2585;48.696;10.066;2023-07-16T08:00:20;19.80;83.90
5134;DHT22;2585;48.696;10.066;2023-07-16T08:02:47;19.60;74.50
5134;DHT22;2585;48.696;10.066;2023-07-16T08:05:14;19.20;6.40
5134;DHT22;2585;48.696;10.066;2023-07-16T08:07:41;19.00;1.00
5134;DHT22;2585;48.696;10.066;2023-07-16T08:10:08;18.90;43.10
5134;DHT22;2585;48.696;10.066;2023-07-16T08:12:35;18.90;48.60
5134;DHT22;2585;48.696;10.066;2023-07-16T08:15:02;18.90;17.40
5134;DHT22;2585;48.696;10.066;2023-07-16T08:17:30;19.20;70.20
5134;DHT22;2585;48.696;10.066;2023-07-16T08:19:58;19.50;18.00
5134;DHT22;2585;48.696;10.066;2023-07-16T08:22:25;19.20;1.00
5134;DHT22;2585;48.696;10.066;2023-07-16T08:24:52;19.20;1.00
5134;DHT22;2585;48.696;10.066;2023-07-16T08:27:18;20.00;1.00
5134;DHT22;2585;48.696;10.066;2023-07-16T08:29:46;20.60;83.00
5134;DHT22;2585;48.696;10.066;2023-07-16T08:32:13;20.30;1.00
5134;DHT22;2585;48.696;10.066;2023-07-16T08:34:40;20.10;1.00
5134;DHT22;2585;48.696;10.066;2023-07-16T08:37:07;20.10;1.00
5134;DHT22;2585;48.696;10.066;2023-07-16T08:39:33;19.90;91.60
5134;DHT22;2585;48.696;10.066;2023-07-16T08:42:01;19.80;1.00
5134;DHT22;2585;48.696;10.066;2023-07-16T08:44:29;19.60;1.00
5134;DHT22;2585;48.696;10.066;2023-07-16T08:46:56;19.90;42.30
5134;DHT22;2585;48.696;10.066;2023-07-16T08:49:23;20.30;88.90
5134;DHT22;2585;48.696;10.066;2023-07-16T08:51:52;20.50;1.00
5134;DHT22;2585;48.696;10.066;2023-07-16T08:54:22;20.80;1.00
5134;DHT22;2585;48.696;10.066;2023-07-16T08:56:49;21.00;1.00
5134;DHT22;2585;48.696;10.066;2023-07-16T08:59:17;21.00;85.10
5134;DHT22;2585;48.696;10.066;2023-07-16T09:01:47;20.70;1.00
5134;DHT22;2585;48.696;10.066;2023-07-16T09:04:18;20.80;1.00
5134;DHT22;2585;48.696;10.066;2023-07-16T09:06:45;20.90;27.40
5134;DHT22;2585;48.696;10.066;2023-07-16T09:09:22;20.70;1.00
5134;DHT22;2585;48.696;10.066;2023-07-16T09:11:49;20.90;2.40
5134;DHT22;2585;48.696;10.066;2023-07-16T09:14:20;20.70;28.90
5134;DHT22;2585;48.696;10.066;2023-07-16T09:16:51;20.80;90.50
5134;DHT22;2585;48.696;10.066;2023-07-16T09:19:18;21.30;92.20
5134;DHT22;2585;48.696;10.066;2023-07-16T09:21:49;21.60;89.00
5134;DHT22;2585;48.696;10.066;2023-07-16T09:24:17;22.10;60.10
5134;DHT22;2585;48.696;10.066;2023-07-16T09:26:51;22.70;93.50
5134;DHT22;2585;48.696;10.066;2023-07-16T09:29:19;22.60;72.50
5134;DHT22;2585;48.696;10.066;2023-07-16T09:32:02;22.40;3.10
5134;DHT22;2585;48.696;10.066;2023-07-16T09:34:30;22.20;1.00
5134;DHT22;2585;48.696;10.066;2023-07-16T09:36:58;21.80;92.20
5134;DHT22;2585;48.696;10.066;2023-07-16T09:39:26;21.50;85.00
5134;DHT22;2585;48.696;10.066;2023-07-16T09:41:53;21.20;1.00
5134;DHT22;2585;48.696;10.066;2023-07-16T09:44:23;21.30;93.70
5134;DHT22;2585;48.696;10.066;2023-07-16T09:46:50;21.30;20.70
5134;DHT22;2585;48.696;10.066;2023-07-16T09:49:17;21.10;90.60
5134;DHT22;2585;48.696;10.066;2023-07-16T09:51:45;21.10;66.40
5134;DHT22;2585;48.696;10.066;2023-07-16T09:54:14;20.90;1.00
5134;DHT22;2585;48.696;10.066;2023-07-16T09:56:56;21.20;79.90
5134;DHT22;2585;48.696;10.066;2023-07-16T09:59:28;21.40;9.70
5134;DHT22;2585;48.696;10.066;2023-07-16T10:01:57;21.20;90.90
5134;DHT22;2585;48.696;10.066;2023-07-16T10:04:25;22.40;8.50
5134;DHT22;2585;48.696;10.066;2023-07-16T10:06:58;22.90;1.00
5134;DHT22;2585;48.696;10.066;2023-07-16T10:09:52;23.40;95.10
5134;DHT22;2585;48.696;10.066;2023-07-16T10:12:20;23.90;68.80
5134;DHT22;2585;48.696;10.066;2023-07-16T10:14:51;24.40;80.00
5134;DHT22;2585;48.696;10.066;2023-07-16T10:17:26;24.10;57.00
5134;DHT22;2585;48.696;10.066;2023-07-16T10:22:41;22.60;1.00
5134;DHT22;2585;48.696;10.066;2023-07-16T10:27:48;22.60;62.30
5134;DHT22;2585;48.696;10.066;2023-07-16T10:30:16;22.80;81.60
5134;DHT22;2585;48.696;10.066;2023-07-16T10:32:43;22.80;8.70
5134;DHT22;2585;48.696;10.066;2023-07-16T10:35:11;22.80;1.00
5134;DHT22;2585;48.696;10.066;2023-07-16T10:37:39;23.10;1.00
5134;DHT22;2585;48.696;10.066;2023-07-16T10:40:11;23.10;1.00
5134;DHT22;2585;48.696;10.066;2023-07-16T10:42:40;22.90;1.00
5134;DHT22;2585;48.696;10.066;2023-07-16T10:45:08;23.00;1.00
5134;DHT22;2585;48.696;10.066;2023-07-16T10:47:50;23.40;5.10
5134;DHT22;2585;48.696;10.066;2023-07-16T10:50:19;24.00;1.00
5134;DHT22;2585;48.696;10.066;2023-07-16T10:52:52;24.30;1.00
5134;DHT22;2585;48.696;10.066;2023-07-16T10:55:20;24.10;1.00
5134;DHT22;2585;48.696;10.066;2023-07-16T10:57:48;25.30;1.00
5134;DHT22;2585;48.696;10.066;2023-07-16T11:00:20;25.20;1.00
5134;DHT22;2585;48.696;10.066;2023-07-16T11:02:50;25.00;91.90
5134;DHT22;2585;48.696;10.066;2023-07-16T11:05:18;24.40;85.70
5134;DHT22;2585;48.696;10.066;2023-07-16T11:07:46;23.80;90.70
5134;DHT22;2585;48.696;10.066;2023-07-16T11:10:20;23.30;90.40
5134;DHT22;2585;48.696;10.066;2023-07-16T11:12:51;23.30;1.00
5134;DHT22;2585;48.696;10.066;2023-07-16T11:15:31;23.20;1.00
5134;DHT22;2585;48.696;10.066;2023-07-16T11:17:59;23.30;1.00
5134;DHT22;2585;48.696;10.066;2023-07-16T11:20:27;23.20;91.30
5134;DHT22;2585;48.696;10.066;2023-07-16T11:22:53;23.60;92.30
5134;DHT22;2585;48.696;10.066;2023-07-16T11:25:23;23.60;84.10
5134;DHT22;2585;48.696;10.066;2023-07-16T11:27:54;24.00;84.30
5134;DHT22;2585;48.696;10.066;2023-07-16T11:30:25;23.80;75.20
5134;DHT22;2585;48.696;10.066;2023-07-16T11:32:54;24.40;75.20
5134;DHT22;2585;48.696;10.066;2023-07-16T11:35:21;24.80;77.50
5134;DHT22;2585;48.696;10.066;2023-07-16T11:37:48;25.70;70.80
5134;DHT22;2585;48.696;10.066;2023-07-16T11:40:20;25.70;61.40
5134;DHT22;2585;48.696;10.066;2023-07-16T11:42:47;25.20;47.50
5134;DHT22;2585;48.696;10.066;2023-07-16T11:45:24;24.60;63.70
5134;DHT22;2585;48.696;10.066;2023-07-16T11:47:54;25.00;62.20
5134;DHT22;2585;48.696;10.066;2023-07-16T11:50:22;24.50;34.50
5134;DHT22;2585;48.696;10.066;2023-07-16T11:52:59;25.00;61.50
5134;DHT22;2585;48.696;10.066;2023-07-16T11:55:26;25.00;63.80
5134;DHT22;2585;48.696;10.066;2023-07-16T11:57:52;24.70;35.30
5134;DHT22;2585;48.696;10.066;2023-07-16T12:00:19;24.90;28.90
5134;DHT22;2585;48.696;10.066;2023-07-16T12:02:46;24.80;23.60
5134;DHT22;2585;48.696;10.066;2023-07-16T12:05:22;26.00;37.40
5134;DHT22;2585;48.696;10.066;2023-07-16T12:08:10;26.40;38.00
5134;DHT22;2585;48.696;10.066;2023-07-16T12:10:41;27.20;39.30
5134;DHT22;2585;48.696;10.066;2023-07-16T12:13:08;28.10;11.70
5134;DHT22;2585;48.696;10.066;2023-07-16T12:15:35;27.80;1.00
5134;DHT22;2585;48.696;10.066;2023-07-16T12:18:01;26.80;1.00
5134;DHT22;2585;48.696;10.066;2023-07-16T12:20:28;25.80;1.00
5134;DHT22;2585;48.696;10.066;2023-07-16T12:22:55;25.00;1.00
5134;DHT22;2585;48.696;10.066;2023-07-16T12:25:22;25.40;11.50
5134;DHT22;2585;48.696;10.066;2023-07-16T12:27:49;25.40;3.00
5134;DHT22;2585;48.696;10.066;2023-07-16T12:30:20;24.70;1.20
5134;DHT22;2585;48.696;10.066;2023-07-16T12:32:47;24.50;1.00
5134;DHT22;2585;48.696;10.066;2023-07-16T12:35:14;24.90;19.00
5134;DHT22;2585;48.696;10.066;2023-07-16T12:37:41;24.60;1.00
5134;DHT22;2585;48.696;10.066;2023-07-16T12:40:08;24.30;1.00
5134;DHT22;2585;48.696;10.066;2023-07-16T12:42:35;24.40;1.00
5134;DHT22;2585;48.696;10.066;2023-07-16T12:45:02;24.20;1.00
5134;DHT22;2585;48.696;10.066;2023-07-16T12:47:29;24.40;1.00
5134;DHT22;2585;48.696;10.066;2023-07-16T12:49:56;25.10;1.00
5134;DHT22;2585;48.696;10.066;2023-07-16T12:52:22;25.10;1.00
5134;DHT22;2585;48.696;10.066;2023-07-16T12:54:49;25.60;1.00
5134;DHT22;2585;48.696;10.066;2023-07-16T12:57:17;25.50;1.00
5134;DHT22;2585;48.696;10.066;2023-07-16T12:59:44;25.70;1.00
5134;DHT22;2585;48.696;10.066;2023-07-16T13:02:10;26.10;1.00
5134;DHT22;2585;48.696;10.066;2023-07-16T13:04:37;26.40;1.00
5134;DHT22;2585;48.696;10.066;2023-07-16T13:07:04;26.40;1.00
5134;DHT22;2585;48.696;10.066;2023-07-16T13:09:31;26.10;1.00
5134;DHT22;2585;48.696;10.066;2023-07-16T13:11:58;25.90;1.00
5134;DHT22;2585;48.696;10.066;2023-07-16T13:14:25;25.70;1.00
5134;DHT22;2585;48.696;10.066;2023-07-16T13:16:52;25.60;1.00
5134;DHT22;2585;48.696;10.066;2023-07-16T13:19:19;25.30;1.00
5134;DHT22;2585;48.696;10.066;2023-07-16T13:21:46;25.40;1.00
5134;DHT22;2585;48.696;10.066;2023-07-16T13:24:13;25.10;1.00
5134;DHT22;2585;48.696;10.066;2023-07-16T13:26:40;25.50;1.00
5134;DHT22;2585;48.696;10.066;2023-07-16T13:29:07;25.90;1.00
5134;DHT22;2585;48.696;10.066;2023-07-16T13:31:34;27.10;1.00
5134;DHT22;2585;48.696;10.066;2023-07-16T13:34:01;27.60;1.00
5134;DHT22;2585;48.696;10.066;2023-07-16T13:36:27;27.80;1.00
5134;DHT22;2585;48.696;10.066;2023-07-16T13:38:54;28.10;1.00
5134;DHT22;2585;48.696;10.066;2023-07-16T13:41:21;28.10;1.00
5134;DHT22;2585;48.696;10.066;2023-07-16T13:43:48;27.50;1.00
5134;DHT22;2585;48.696;10.066;2023-07-16T13:46:15;26.90;1.00
5134;DHT22;2585;48.696;10.066;2023-07-16T13:48:42;26.80;1.00
5134;DHT22;2585;48.696;10.066;2023-07-16T13:51:24;27.30;1.00
5134;DHT22;2585;48.696;10.066;2023-07-16T13:53:51;27.20;1.00
5134;DHT22;2585;48.696;10.066;2023-07-16T13:56:18;27.30;1.00
5134;DHT22;2585;48.696;10.066;2023-07-16T13:58:45;27.50;1.00
5134;DHT22;2585;48.696;10.066;2023-07-16T14:01:12;27.00;1.00
5134;DHT22;2585;48.696;10.066;2023-07-16T14:03:39;27.10;1.00
5134;DHT22;2585;48.696;10.066;2023-07-16T14:06:06;26.90;1.00
5134;DHT22;2585;48.696;10.066;2023-07-16T14:08:33;26.60;1.00
5134;DHT22;2585;48.696;10.066;2023-07-16T14:11:02;26.50;1.00
5134;DHT22;2585;48.696;10.066;2023-07-16T14:13:29;26.20;1.00
5134;DHT22;2585;48.696;10.066;2023-07-16T14:15:56;26.80;1.00
5134;DHT22;2585;48.696;10.066;2023-07-16T14:18:23;26.90;1.00
5134;DHT22;2585;48.696;10.066;2023-07-16T14:20:50;26.40;1.00
5134;DHT22;2585;48.696;10.066;2023-07-16T14:23:17;25.80;1.00
5134;DHT22;2585;48.696;10.066;2023-07-16T14:25:44;25.40;1.00
5134;DHT22;2585;48.696;10.066;2023-07-16T14:28:11;25.40;1.00
5134;DHT22;2585;48.696;10.066;2023-07-16T14:30:38;25.20;1.00
5134;DHT22;2585;48.696;10.066;2023-07-16T14:33:04;25.10;1.00
5134;DHT22;2585;48.696;10.066;2023-07-16T14:35:33;25.40;1.00
5134;DHT22;2585;48.696;10.066;2023-07-16T14:38:03;25.80;1.00
5134;DHT22;2585;48.696;10.066;2023-07-16T14:40:30;25.70;1.00
5134;DHT22;2585;48.696;10.066;2023-07-16T14:42:57;25.40;1.00
5134;DHT22;2585;48.696;10.066;2023-07-16T14:45:24;25.30;1.00
5134;DHT22;2585;48.696;10.066;2023-07-16T14:47:51;25.20;1.00
5134;DHT22;2585;48.696;10.066;2023-07-16T14:50:18;25.10;1.00
5134;DHT22;2585;48.696;10.066;2023-07-16T14:52:45;25.10;1.00
5134;DHT22;2585;48.696;10.066;2023-07-16T14:55:12;25.10;1.00
5134;DHT22;2585;48.696;10.066;2023-07-16T14:57:39;25.50;1.00
5134;DHT22;2585;48.696;10.066;2023-07-16T15:00:07;25.30;1.00
5134;DHT22;2585;48.696;10.066;2023-07-16T15:02:35;24.80;1.00
5134;DHT22;2585;48.696;10.066;2023-07-16T15:05:02;25.00;1.00
5134;DHT22;2585;48.696;10.066;2023-07-16T15:07:30;25.00;1.00
5134;DHT22;2585;48.696;10.066;2023-07-16T15:09:57;25.30;1.00
5134;DHT22;2585;48.696;10.066;2023-07-16T15:12:24;25.20;1.00
5134;DHT22;2585;48.696;10.066;2023-07-16T15:14:52;25.30;1.00
5134;DHT22;2585;48.696;10.066;2023-07-16T15:17:19;25.10;1.00
5134;DHT22;2585;48.696;10.066;2023-07-16T15:19:46;25.30;1.00
5134;DHT22;2585;48.696;10.066;2023-07-16T15:22:13;25.80;1.00
5134;DHT22;2585;48.696;10.066;2023-07-16T15:24:42;25.90;1.00
5134;DHT22;2585;48.696;10.066;2023-07-16T15:27:09;25.60;1.00
5134;DHT22;2585;48.696;10.066;2023-07-16T15:29:36;25.60;1.00
5134;DHT22;2585;48.696;10.066;2023-07-16T15:32:04;26.10;1.00
5134;DHT22;2585;48.696;10.066;2023-07-16T15:34:32;26.00;1.00
5134;DHT22;2585;48.696;10.066;2023-07-16T15:36:59;25.90;1.00
5134;DHT22;2585;48.696;10.066;2023-07-16T15:39:26;26.40;1.00
5134;DHT22;2585;48.696;10.066;2023-07-16T15:41:53;26.30;1.00
5134;DHT22;2585;48.696;10.066;2023-07-16T15:44:20;25.80;1.00
5134;DHT22;2585;48.696;10.066;2023-07-16T15:46:47;25.50;96.00
5134;DHT22;2585;48.696;10.066;2023-07-16T15:49:13;25.20;1.00
5134;DHT22;2585;48.696;10.066;2023-07-16T15:51:40;25.60;1.00
5134;DHT22;2585;48.696;10.066;2023-07-16T15:54:08;25.50;1.00
5134;DHT22;2585;48.696;10.066;2023-07-16T15:56:35;25.60;1.00
5134;DHT22;2585;48.696;10.066;2023-07-16T15:59:02;25.30;95.90
5134;DHT22;2585;48.696;10.066;2023-07-16T16:01:29;25.10;1.00
5134;DHT22;2585;48.696;10.066;2023-07-16T16:03:55;25.30;1.00
5134;DHT22;2585;48.696;10.066;2023-07-16T16:06:22;25.20;1.00
5134;DHT22;2585;48.696;10.066;2023-07-16T16:08:49;25.20;1.00